createdAt,value
2017-06-03T00:00:52.087Z,51.18
2017-06-03T00:01:52.094Z,50.89
2017-06-03T00:02:51.799Z,51.31
2017-06-03T00:03:52.162Z,51.01
2017-06-03T00:04:52.131Z,50.89
2017-06-03T00:05:52.128Z,50.53
2017-06-03T00:06:52.192Z,50.89
2017-06-03T00:07:52.145Z,50.8
2017-06-03T00:08:52.153Z,50.43
2017-06-03T00:09:52.213Z,50.43
2017-06-03T00:10:52.174Z,50.24
2017-06-03T00:11:52.181Z,50.24
2017-06-03T00:12:52.189Z,50.53
2017-06-03T00:13:52.199Z,50.53
2017-06-03T00:14:52.208Z,50.24
2017-06-03T00:15:52.266Z,50.82
2017-06-03T00:16:52.223Z,51.01
2017-06-03T00:17:52.234Z,50.89
2017-06-03T00:18:51.930Z,50.7
2017-06-03T00:19:52.250Z,51.09
2017-06-03T00:20:52.260Z,51.09
2017-06-03T00:21:52.271Z,50.6
2017-06-03T00:22:52.327Z,50.21
2017-06-03T00:23:52.335Z,50.34
2017-06-03T00:24:52.295Z,50.73
2017-06-03T00:25:52.355Z,50.21
2017-06-03T00:26:52.314Z,50.21
2017-06-03T00:27:52.011Z,50.53
2017-06-03T00:28:52.329Z,50.53
2017-06-03T00:29:52.026Z,50.24
2017-06-03T00:30:52.343Z,50.6
2017-06-03T00:31:52.354Z,50.41
2017-06-03T00:32:52.367Z,50.43
2017-06-03T00:33:52.371Z,50.99
2017-06-03T00:34:52.380Z,50.89
2017-06-03T00:35:52.079Z,50.89
2017-06-03T00:36:52.398Z,50.8
2017-06-03T00:37:52.408Z,50.89
2017-06-03T00:38:52.414Z,50.7
2017-06-03T00:39:52.424Z,50.41
2017-06-03T00:40:52.433Z,50.43
2017-06-03T00:41:52.133Z,50.24
2017-06-03T00:42:52.450Z,50.14
2017-06-03T00:43:52.459Z,50.41
2017-06-03T00:44:52.469Z,49.76
2017-06-03T00:45:52.169Z,50.14
2017-06-03T00:46:52.487Z,50.24
2017-06-03T00:47:52.565Z,50.24
2017-06-03T00:48:52.505Z,50.34
2017-06-03T00:49:52.515Z,50.53
2017-06-03T00:50:52.520Z,50.43
2017-06-03T00:51:52.219Z,50.41
2017-06-03T00:52:52.229Z,50.6
2017-06-03T00:53:52.549Z,50.51
2017-06-03T00:54:52.294Z,50.43
2017-06-03T00:55:52.251Z,50.14
2017-06-03T00:56:52.259Z,50.14
2017-06-03T00:57:52.587Z,50.53
2017-06-03T00:58:52.590Z,50.73
2017-06-03T00:59:52.598Z,50.34
2017-06-03T01:00:52.662Z,50.6
2017-06-03T01:01:52.619Z,50.53
2017-06-03T01:02:52.626Z,50.24
2017-06-03T01:03:52.324Z,50.41
2017-06-03T01:04:52.642Z,50.34
2017-06-03T01:05:52.701Z,50.53
2017-06-03T01:06:52.663Z,50.53
2017-06-03T01:07:52.668Z,50.24
2017-06-03T01:08:52.373Z,50.04
2017-06-03T01:09:52.688Z,50.63
2017-06-03T01:10:52.697Z,50.24
2017-06-03T01:11:52.708Z,50.14
2017-06-03T01:12:52.713Z,50.63
2017-06-03T01:13:52.775Z,50.34
2017-06-03T01:14:52.732Z,50.14
2017-06-03T01:15:52.743Z,50.43
2017-06-03T01:16:52.801Z,50.73
2017-06-03T01:17:52.765Z,50.34
2017-06-03T01:18:52.820Z,50.14
2017-06-03T01:19:52.777Z,50.14
2017-06-03T01:20:52.787Z,50.24
2017-06-03T01:21:52.484Z,49.95
2017-06-03T01:22:52.807Z,50.24
2017-06-03T01:23:52.839Z,50.24
2017-06-03T01:24:52.824Z,50.04
2017-06-03T01:25:52.836Z,50.24
2017-06-03T01:26:52.839Z,50.53
2017-06-03T01:27:52.852Z,50.43
2017-06-03T01:28:52.863Z,50.73
2017-06-03T01:29:52.607Z,50.63
2017-06-03T01:30:52.877Z,50.53
2017-06-03T01:31:52.887Z,50.24
2017-06-03T01:32:52.894Z,50.63
2017-06-03T01:33:52.902Z,50.53
2017-06-03T01:34:52.909Z,50.24
2017-06-03T01:35:52.922Z,50.92
2017-06-03T01:36:52.670Z,50.89
2017-06-03T01:37:52.936Z,50.89
2017-06-03T01:38:52.948Z,50.8
2017-06-03T01:39:52.956Z,51.21
2017-06-03T01:40:52.963Z,51.21
2017-06-03T01:41:52.974Z,51.28
2017-06-03T01:42:52.671Z,51.18
2017-06-03T01:43:52.682Z,51.38
2017-06-03T01:44:53.000Z,51.67
2017-06-03T01:45:53.011Z,51.18
2017-06-03T01:46:53.018Z,51.97
2017-06-03T01:47:53.028Z,51.87
2017-06-03T01:48:53.037Z,51.57
2017-06-03T01:49:53.092Z,51.87
2017-06-03T01:50:53.103Z,51.87
2017-06-03T01:51:53.062Z,52.25
2017-06-03T01:52:53.067Z,51.97
2017-06-03T01:53:53.080Z,51.97
2017-06-03T01:54:53.091Z,51.48
2017-06-03T01:55:53.095Z,51.99
2017-06-03T01:56:53.103Z,52.45
2017-06-03T01:57:53.113Z,52.25
2017-06-03T01:58:53.122Z,51.97
2017-06-03T01:59:53.131Z,51.79
2017-06-03T02:00:53.439Z,51.79
2017-06-03T02:01:53.151Z,52.15
2017-06-03T02:02:53.206Z,52.74
2017-06-03T02:03:53.168Z,51.87
2017-06-03T02:04:53.176Z,52.15
2017-06-03T02:05:53.185Z,52.55
2017-06-03T02:06:52.881Z,52.15
2017-06-03T02:07:53.201Z,52.84
2017-06-03T02:08:52.897Z,52.55
2017-06-03T02:09:53.217Z,52.64
2017-06-03T02:10:53.226Z,52.15
2017-06-03T02:11:53.234Z,52.84
2017-06-03T02:12:53.245Z,52.35
2017-06-03T02:13:52.939Z,52.64
2017-06-03T02:14:53.261Z,52.64
2017-06-03T02:15:52.959Z,52.25
2017-06-03T02:16:52.965Z,52.06
2017-06-03T02:17:53.285Z,52.25
2017-06-03T02:18:53.296Z,52.55
2017-06-03T02:19:53.303Z,52.35
2017-06-03T02:20:53.319Z,52.25
2017-06-03T02:21:53.368Z,52.23
2017-06-03T02:22:53.376Z,52.74
2017-06-03T02:23:53.027Z,52.15
2017-06-03T02:24:53.344Z,51.87
2017-06-03T02:25:53.354Z,52.35
2017-06-03T02:26:53.054Z,51.57
2017-06-03T02:27:53.370Z,51.97
2017-06-03T02:28:53.068Z,51.87
2017-06-03T02:29:53.385Z,52.45
2017-06-03T02:30:53.394Z,52.25
2017-06-03T02:31:53.408Z,51.57
2017-06-03T02:32:53.415Z,51.28
2017-06-03T02:33:53.427Z,51.57
2017-06-03T02:34:53.435Z,51.97
2017-06-03T02:35:53.443Z,51.87
2017-06-03T02:36:53.453Z,51.48
2017-06-03T02:37:53.460Z,51.6
2017-06-03T02:38:53.468Z,51.67
2017-06-03T02:39:53.166Z,51.57
2017-06-03T02:40:53.176Z,51.6
2017-06-03T02:41:53.496Z,51.4
2017-06-03T02:42:53.505Z,51.48
2017-06-03T02:43:53.204Z,51.7
2017-06-03T02:44:53.586Z,51.79
2017-06-03T02:45:53.530Z,51.11
2017-06-03T02:46:53.539Z,51.67
2017-06-03T02:47:53.556Z,51.6
2017-06-03T02:48:53.559Z,51.6
2017-06-03T02:49:53.570Z,51.4
2017-06-03T02:50:53.586Z,51.5
2017-06-03T02:51:53.586Z,51.4
2017-06-03T02:52:53.283Z,51.67
2017-06-03T02:53:53.654Z,51.48
2017-06-03T02:54:53.625Z,51.48
2017-06-03T02:55:53.622Z,51.6
2017-06-03T02:56:53.319Z,51.57
2017-06-03T02:57:53.687Z,52.15
2017-06-03T02:58:53.649Z,52.06
2017-06-03T02:59:53.658Z,51.67
2017-06-03T03:00:53.665Z,51.57
2017-06-03T03:01:53.673Z,51.77
2017-06-03T03:02:53.683Z,51.48
2017-06-03T03:03:53.750Z,51.57
2017-06-03T03:04:53.696Z,51.7
2017-06-03T03:05:53.708Z,51.18
2017-06-03T03:06:53.716Z,51.67
2017-06-03T03:07:53.725Z,51.67
2017-06-03T03:08:53.736Z,51.67
2017-06-03T03:09:53.793Z,51.4
2017-06-03T03:10:53.751Z,51.4
2017-06-03T03:11:53.762Z,51.6
2017-06-03T03:12:53.819Z,51.6
2017-06-03T03:13:53.469Z,51.38
2017-06-03T03:14:53.787Z,51.77
2017-06-03T03:15:53.798Z,51.4
2017-06-03T03:16:53.855Z,51.67
2017-06-03T03:17:53.502Z,51.87
2017-06-03T03:18:53.512Z,51.57
2017-06-03T03:19:53.883Z,51.97
2017-06-03T03:20:53.842Z,51.67
2017-06-03T03:21:53.840Z,51.18
2017-06-03T03:22:53.906Z,51.57
2017-06-03T03:23:53.866Z,51.7
2017-06-03T03:24:53.878Z,51.38
2017-06-03T03:25:53.881Z,51.38
2017-06-03T03:26:53.942Z,51.57
2017-06-03T03:27:53.590Z,51.57
2017-06-03T03:28:53.911Z,51.87
2017-06-03T03:29:53.926Z,51.67
2017-06-03T03:30:53.925Z,51.57
2017-06-03T03:31:53.937Z,51.48
2017-06-03T03:32:53.942Z,51.57
2017-06-03T03:33:53.959Z,51.67
2017-06-03T03:34:53.650Z,51.77
2017-06-03T03:35:53.968Z,50.99
2017-06-03T03:36:54.029Z,50.89
2017-06-03T03:37:53.985Z,51.28
2017-06-03T03:38:53.997Z,51.18
2017-06-03T03:39:54.002Z,51.38
2017-06-03T03:40:54.014Z,51.67
2017-06-03T03:41:54.325Z,51.09
2017-06-03T03:42:54.031Z,51.87
2017-06-03T03:43:54.037Z,51.48
2017-06-03T03:44:54.047Z,51.48
2017-06-03T03:45:53.751Z,52.06
2017-06-03T03:46:54.066Z,51.84
2017-06-03T03:47:54.124Z,51.65
2017-06-03T03:48:53.772Z,51.87
2017-06-03T03:49:54.090Z,51.18
2017-06-03T03:50:54.100Z,51.77
2017-06-03T03:51:54.107Z,51.57
2017-06-03T03:52:54.119Z,51.67
2017-06-03T03:53:54.227Z,51.48
2017-06-03T03:54:54.145Z,51.57
2017-06-03T03:55:54.142Z,52.06
2017-06-03T03:56:54.149Z,51.77
2017-06-03T03:57:54.211Z,52.42
2017-06-03T03:58:54.168Z,51.65
2017-06-03T03:59:54.177Z,51.57
2017-06-03T04:00:54.185Z,51.38
2017-06-03T04:01:54.194Z,51.77
2017-06-03T04:02:54.201Z,51.57
2017-06-03T04:03:54.216Z,51.57
2017-06-03T04:04:54.217Z,51.77
2017-06-03T04:05:53.916Z,50.89
2017-06-03T04:06:54.236Z,50.89
2017-06-03T04:07:54.248Z,51.38
2017-06-03T04:08:54.256Z,51.28
2017-06-03T04:09:54.261Z,51.38
2017-06-03T04:10:54.271Z,51.28
2017-06-03T04:11:54.277Z,51.28
2017-06-03T04:12:54.591Z,51.48
2017-06-03T04:13:54.294Z,51.01
2017-06-03T04:14:54.311Z,51.5
2017-06-03T04:15:54.365Z,50.6
2017-06-03T04:16:54.013Z,50.7
2017-06-03T04:17:54.333Z,51.28
2017-06-03T04:18:54.031Z,51.09
2017-06-03T04:19:54.045Z,51.48
2017-06-03T04:20:54.666Z,51.09
2017-06-03T04:21:54.369Z,50.82
2017-06-03T04:22:54.375Z,50.92
2017-06-03T04:23:54.387Z,50.99
2017-06-03T04:24:54.393Z,50.51
2017-06-03T04:25:54.454Z,50.8
2017-06-03T04:26:54.414Z,50.99
2017-06-03T04:27:54.420Z,50.99
2017-06-03T04:28:54.428Z,50.8
2017-06-03T04:29:54.441Z,50.89
2017-06-03T04:30:54.448Z,50.43
2017-06-03T04:31:54.456Z,50.73
2017-06-03T04:32:54.467Z,50.8
2017-06-03T04:33:54.165Z,50.41
2017-06-03T04:34:54.485Z,50.31
2017-06-03T04:35:54.542Z,50.04
2017-06-03T04:36:54.501Z,50.24
2017-06-03T04:37:54.509Z,50.41
2017-06-03T04:38:54.517Z,50.53
2017-06-03T04:39:54.532Z,50.04
2017-06-03T04:40:54.536Z,50.41
2017-06-03T04:41:54.550Z,50.21
2017-06-03T04:42:54.550Z,50.51
2017-06-03T04:43:54.560Z,50.21
2017-06-03T04:44:54.259Z,50.8
2017-06-03T04:45:54.268Z,50.31
2017-06-03T04:46:54.583Z,50.51
2017-06-03T04:47:54.596Z,50.21
2017-06-03T04:48:54.605Z,50.02
2017-06-03T04:49:54.613Z,50.12
2017-06-03T04:50:54.619Z,50.31
2017-06-03T04:51:54.631Z,50.04
2017-06-03T04:52:54.689Z,50.02
2017-06-03T04:53:54.644Z,50.02
2017-06-03T04:54:54.654Z,50.51
2017-06-03T04:55:54.666Z,50.12
2017-06-03T04:56:54.721Z,50.12
2017-06-03T04:57:54.732Z,49.82
2017-06-03T04:58:54.691Z,50.21
2017-06-03T04:59:54.701Z,49.44
2017-06-03T05:00:54.697Z,49.92
2017-06-03T05:01:54.718Z,49.44
2017-06-03T05:02:54.463Z,49.85
2017-06-03T05:03:54.736Z,49.44
2017-06-03T05:04:54.742Z,50.04
2017-06-03T05:05:54.753Z,49.73
2017-06-03T05:06:54.763Z,49.66
2017-06-03T05:07:54.769Z,49.95
2017-06-03T05:08:54.472Z,49.92
2017-06-03T05:09:54.840Z,49.63
2017-06-03T05:10:54.848Z,49.15
2017-06-03T05:11:54.805Z,49.37
2017-06-03T05:12:54.815Z,49.73
2017-06-03T05:13:54.823Z,49.46
2017-06-03T05:14:54.832Z,49.17
2017-06-03T05:15:54.530Z,49.07
2017-06-03T05:16:54.848Z,49.34
2017-06-03T05:17:54.857Z,49.07
2017-06-03T05:18:54.865Z,49.27
2017-06-03T05:19:54.881Z,49.17
2017-06-03T05:20:54.934Z,49.27
2017-06-03T05:21:54.589Z,49.44
2017-06-03T05:22:54.902Z,50.02
2017-06-03T05:23:54.909Z,49.63
2017-06-03T05:24:54.917Z,49.05
2017-06-03T05:25:54.929Z,49.24
2017-06-03T05:26:54.935Z,49.73
2017-06-03T05:27:54.634Z,49.17
2017-06-03T05:28:54.651Z,50.21
2017-06-03T05:29:55.262Z,49.73
2017-06-03T05:30:54.969Z,49.24
2017-06-03T05:31:54.668Z,49.54
2017-06-03T05:32:54.677Z,49.27
2017-06-03T05:33:54.688Z,49.44
2017-06-03T05:34:55.054Z,49.63
2017-06-03T05:35:55.016Z,48.95
2017-06-03T05:36:55.021Z,49.24
2017-06-03T05:37:55.030Z,48.95
2017-06-03T05:38:55.041Z,48.97
2017-06-03T05:39:54.737Z,49.15
2017-06-03T05:40:55.108Z,48.95
2017-06-03T05:41:55.116Z,49.34
2017-06-03T05:42:55.074Z,48.97
2017-06-03T05:43:55.082Z,49.37
2017-06-03T05:44:54.781Z,49.17
2017-06-03T05:45:55.103Z,49.07
2017-06-03T05:46:55.111Z,49.07
2017-06-03T05:47:55.118Z,49.27
2017-06-03T05:48:55.130Z,49.15
2017-06-03T05:49:55.135Z,49.63
2017-06-03T05:50:55.146Z,49.15
2017-06-03T05:51:55.152Z,48.95
2017-06-03T05:52:54.850Z,48.95
2017-06-03T05:53:54.860Z,48.95
2017-06-03T05:54:55.180Z,48.97
2017-06-03T05:55:55.187Z,49.15
2017-06-03T05:56:55.199Z,49.15
2017-06-03T05:57:55.205Z,48.85
2017-06-03T05:58:55.215Z,49.07
2017-06-03T05:59:55.222Z,48.88
2017-06-03T06:00:54.920Z,48.68
2017-06-03T06:01:55.243Z,49.37
2017-06-03T06:02:55.250Z,49.85
2017-06-03T06:03:55.260Z,48.66
2017-06-03T06:04:55.265Z,49.56
2017-06-03T06:05:55.325Z,49.46
2017-06-03T06:06:55.283Z,49.56
2017-06-03T06:07:55.292Z,48.97
2017-06-03T06:08:55.301Z,48.97
2017-06-03T06:09:55.311Z,49.27
2017-06-03T06:10:55.319Z,48.97
2017-06-03T06:11:55.333Z,49.17
2017-06-03T06:12:55.339Z,49.07
2017-06-03T06:13:55.039Z,49.07
2017-06-03T06:14:55.656Z,49.27
2017-06-03T06:15:55.365Z,48.97
2017-06-03T06:16:55.424Z,49.37
2017-06-03T06:17:55.383Z,49.17
2017-06-03T06:18:55.393Z,49.17
2017-06-03T06:19:55.402Z,49.07
2017-06-03T06:20:55.464Z,49.56
2017-06-03T06:21:55.422Z,49.66
2017-06-03T06:22:55.427Z,49.66
2017-06-03T06:23:55.438Z,49.24
2017-06-03T06:24:55.451Z,49.17
2017-06-03T06:25:55.460Z,49.27
2017-06-03T06:26:55.467Z,49.34
2017-06-03T06:27:55.475Z,49.76
2017-06-03T06:28:55.492Z,49.66
2017-06-03T06:29:55.494Z,49.85
2017-06-03T06:30:55.505Z,49.24
2017-06-03T06:31:55.512Z,49.27
2017-06-03T06:32:55.262Z,49.27
2017-06-03T06:33:55.530Z,49.37
2017-06-03T06:34:55.540Z,50.04
2017-06-03T06:35:55.598Z,49.54
2017-06-03T06:36:55.558Z,50.12
2017-06-03T06:37:55.617Z,49.63
2017-06-03T06:38:55.577Z,49.76
2017-06-03T06:39:55.582Z,49.66
2017-06-03T06:40:55.592Z,49.54
2017-06-03T06:41:55.600Z,49.46
2017-06-03T06:42:55.657Z,49.17
2017-06-03T06:43:55.621Z,49.85
2017-06-03T06:44:55.316Z,49.63
2017-06-03T06:45:55.687Z,49.17
2017-06-03T06:46:55.645Z,49.07
2017-06-03T06:47:55.703Z,48.97
2017-06-03T06:48:55.661Z,49.66
2017-06-03T06:49:55.363Z,48.68
2017-06-03T06:50:55.368Z,48.78
2017-06-03T06:51:55.738Z,48.61
2017-06-03T06:52:55.699Z,48.71
2017-06-03T06:53:55.706Z,48.22
2017-06-03T06:54:55.715Z,48.32
2017-06-03T06:55:55.724Z,48.41
2017-06-03T06:56:55.730Z,48.3
2017-06-03T06:57:55.429Z,48.68
2017-06-03T06:58:55.748Z,48.58
2017-06-03T06:59:55.759Z,48.61
2017-06-03T07:00:55.818Z,48.78
2017-06-03T07:01:55.777Z,48.1
2017-06-03T07:02:55.786Z,48.39
2017-06-03T07:03:55.798Z,48.41
2017-06-03T07:04:55.803Z,48.41
2017-06-03T07:05:55.871Z,48.51
2017-06-03T07:06:55.513Z,48.32
2017-06-03T07:07:55.832Z,48.49
2017-06-03T07:08:55.531Z,48.58
2017-06-03T07:09:55.901Z,48.58
2017-06-03T07:10:55.860Z,48.49
2017-06-03T07:11:55.870Z,48.49
2017-06-03T07:12:56.177Z,48.71
2017-06-03T07:13:55.888Z,48.39
2017-06-03T07:14:55.584Z,48.58
2017-06-03T07:15:55.905Z,47.71
2017-06-03T07:16:55.913Z,48.3
2017-06-03T07:17:55.613Z,48.39
2017-06-03T07:18:55.931Z,48.2
2017-06-03T07:19:55.939Z,48
2017-06-03T07:20:55.639Z,47.81
2017-06-03T07:21:56.044Z,47.42
2017-06-03T07:22:55.968Z,47.61
2017-06-03T07:23:55.975Z,47.71
2017-06-03T07:24:55.985Z,46.94
2017-06-03T07:25:55.995Z,47.44
2017-06-03T07:26:56.009Z,47.34
2017-06-03T07:27:56.011Z,47.32
2017-06-03T07:28:56.020Z,47.32
2017-06-03T07:29:56.029Z,47.05
2017-06-03T07:30:55.775Z,48.3
2017-06-03T07:31:56.044Z,47.32
2017-06-03T07:32:56.061Z,47.52
2017-06-03T07:33:56.063Z,47.52
2017-06-03T07:34:56.070Z,47.25
2017-06-03T07:35:56.128Z,47.05
2017-06-03T07:36:56.093Z,46.86
2017-06-03T07:37:56.098Z,47.15
2017-06-03T07:38:56.110Z,46.86
2017-06-03T07:39:56.117Z,46.96
2017-06-03T07:40:56.124Z,46.67
2017-06-03T07:41:56.133Z,47.15
2017-06-03T07:42:56.143Z,46.47
2017-06-03T07:43:56.152Z,46.47
2017-06-03T07:44:56.164Z,46.69
2017-06-03T07:45:56.195Z,46.11
2017-06-03T07:46:56.179Z,46.11
2017-06-03T07:47:56.188Z,46.11
2017-06-03T07:48:56.198Z,46.59
2017-06-03T07:49:56.205Z,46.67
2017-06-03T07:50:56.217Z,46.57
2017-06-03T07:51:56.224Z,46.47
2017-06-03T07:52:56.280Z,46.47
2017-06-03T07:53:55.931Z,46.57
2017-06-03T07:54:56.249Z,46.57
2017-06-03T07:55:55.952Z,46.57
2017-06-03T07:56:56.317Z,46.57
2017-06-03T07:57:56.281Z,46.4
2017-06-03T07:58:56.290Z,46.86
2017-06-03T07:59:56.298Z,47.15
2017-06-03T08:00:56.044Z,46.57
2017-06-03T08:01:56.342Z,46.3
2017-06-03T08:02:56.321Z,45.72
2017-06-03T08:03:56.328Z,45.91
2017-06-03T08:04:56.337Z,46.11
2017-06-03T08:05:56.352Z,45.62
2017-06-03T08:06:56.415Z,46.2
2017-06-03T08:07:56.368Z,46.01
2017-06-03T08:08:56.115Z,45.45
2017-06-03T08:09:56.386Z,45.06
2017-06-03T08:10:56.394Z,45.64
2017-06-03T08:11:56.404Z,45.84
2017-06-03T08:12:56.102Z,45.45
2017-06-03T08:13:56.422Z,45.45
2017-06-03T08:14:56.481Z,45.28
2017-06-03T08:15:56.130Z,45.18
2017-06-03T08:16:56.151Z,45.08
2017-06-03T08:17:56.460Z,46.05
2017-06-03T08:18:56.473Z,45.94
2017-06-03T08:19:56.478Z,46.51
2017-06-03T08:20:56.538Z,46.01
2017-06-03T08:21:56.546Z,46.03
2017-06-03T08:22:56.245Z,46.23
2017-06-03T08:23:56.515Z,45.84
2017-06-03T08:24:56.213Z,46.13
2017-06-03T08:25:56.534Z,45.54
2017-06-03T08:26:56.553Z,45.94
2017-06-03T08:27:56.552Z,45.74
2017-06-03T08:28:56.559Z,45.74
2017-06-03T08:29:56.579Z,45.94
2017-06-03T08:31:11.202Z,46.03
2017-06-03T08:31:56.590Z,46.13
2017-06-03T08:32:56.602Z,46.13
2017-06-03T08:33:56.297Z,46.71
2017-06-03T08:34:56.616Z,46.81
2017-06-03T08:36:11.200Z,45.74
2017-06-03T08:36:56.740Z,45.76
2017-06-03T08:37:56.648Z,46.25
2017-06-03T08:38:56.656Z,45.95
2017-06-03T08:39:56.363Z,45.57
2017-06-03T08:40:56.675Z,45.67
2017-06-03T08:41:56.683Z,45.67
2017-06-03T08:42:56.744Z,45.08
2017-06-03T08:43:56.701Z,45.86
2017-06-03T08:44:56.760Z,45.28
2017-06-03T08:45:56.721Z,45.95
2017-06-03T08:46:56.732Z,45.47
2017-06-03T08:48:11.313Z,45.67
2017-06-03T08:48:56.441Z,45.95
2017-06-03T08:49:56.450Z,46.05
2017-06-03T08:50:56.777Z,45.76
2017-06-03T08:52:56.791Z,46.05
2017-06-03T08:53:56.849Z,45.95
2017-06-03T08:54:56.808Z,45.67
2017-06-03T08:55:56.510Z,46.05
2017-06-03T08:56:56.830Z,46.54
2017-06-03T08:57:56.890Z,47.03
2017-06-03T08:58:56.854Z,47.49
2017-06-03T08:59:56.549Z,48.07
2017-06-03T09:00:56.870Z,48.36
2017-06-03T09:01:56.877Z,48.27
2017-06-03T09:02:56.889Z,48.27
2017-06-03T09:03:56.587Z,47.42
2017-06-03T09:04:56.908Z,47.8
2017-06-03T09:05:56.658Z,47.42
2017-06-03T09:06:56.930Z,47.22
2017-06-03T09:07:56.938Z,46.64
2017-06-03T09:08:56.950Z,47.22
2017-06-03T09:09:56.650Z,46.44
2017-06-03T09:10:57.069Z,47.03
2017-06-03T09:11:56.672Z,46.73
2017-06-03T09:12:56.989Z,46.54
2017-06-03T09:13:56.999Z,47.13
2017-06-03T09:14:56.698Z,47.42
2017-06-03T09:16:11.593Z,47.42
2017-06-03T09:16:57.054Z,46.83
2017-06-03T09:17:57.037Z,46.73
2017-06-03T09:18:57.052Z,47.13
2017-06-03T09:19:57.057Z,46.83
2017-06-03T09:20:57.069Z,47.52
2017-06-03T09:22:57.088Z,46.73
2017-06-03T09:23:57.098Z,47.22
2017-06-03T09:24:57.108Z,46.64
2017-06-03T09:26:11.693Z,46.15
2017-06-03T09:26:56.820Z,45.67
2017-06-03T09:27:57.164Z,45.57
2017-06-03T09:28:57.147Z,45.67
2017-06-03T09:29:57.161Z,45.86
2017-06-03T09:30:57.223Z,45.76
2017-06-03T09:31:57.194Z,45.86
2017-06-03T09:32:57.190Z,45.37
2017-06-03T09:33:57.200Z,45.76
2017-06-03T09:34:56.899Z,45.37
2017-06-03T09:35:57.220Z,45.67
2017-06-03T09:36:57.229Z,45.57
2017-06-03T09:37:57.241Z,45.57
2017-06-03T09:38:57.249Z,44.98
2017-06-03T09:39:57.260Z,45.67
2017-06-03T09:40:57.323Z,45.76
2017-06-03T09:41:56.970Z,45.18
2017-06-03T09:42:57.290Z,44.49
2017-06-03T09:43:57.301Z,44.98
2017-06-03T09:44:57.365Z,44.2
2017-06-03T09:45:57.321Z,44.98
2017-06-03T09:46:57.331Z,45.18
2017-06-03T09:47:57.340Z,44.89
2017-06-03T09:48:57.403Z,44.3
2017-06-03T09:49:57.101Z,44.2
2017-06-03T09:50:57.422Z,44.59
2017-06-03T09:52:11.957Z,43.71
2017-06-03T09:52:57.392Z,44.4
2017-06-03T09:53:57.091Z,44.1
2017-06-03T09:54:57.411Z,44.1
2017-06-03T09:55:57.477Z,44.01
2017-06-03T09:56:57.436Z,44.2
2017-06-03T09:57:57.441Z,44.1
2017-06-03T09:59:57.460Z,44.2
2017-06-03T10:02:57.492Z,44.69
2017-06-03T10:03:57.503Z,44.69
2017-06-03T10:04:57.511Z,44.4
2017-06-03T10:06:57.535Z,44.2
2017-06-03T10:07:57.541Z,44.3
2017-06-03T10:08:57.555Z,44.2
2017-06-03T10:09:57.563Z,44.1
2017-06-03T10:10:57.266Z,44.13
2017-06-03T10:11:57.276Z,44.1
2017-06-03T10:12:57.618Z,44.1
2017-06-03T10:13:57.605Z,44.49
2017-06-03T10:14:57.302Z,43.64
2017-06-03T10:15:57.676Z,43.81
2017-06-03T10:16:57.639Z,43.62
2017-06-03T10:17:57.647Z,43.93
2017-06-03T10:18:57.656Z,44.49
2017-06-03T10:19:57.718Z,44.4
2017-06-03T10:20:57.729Z,43.71
2017-06-03T10:22:57.388Z,43.15
2017-06-03T10:23:57.708Z,43.71
2017-06-03T10:24:57.720Z,43.62
2017-06-03T10:25:57.729Z,43.71
2017-06-03T10:26:57.789Z,43.35
2017-06-03T10:27:57.801Z,43.25
2017-06-03T10:28:57.762Z,43.54
2017-06-03T10:29:57.770Z,42.96
2017-06-03T10:30:57.811Z,43.25
2017-06-03T10:32:57.851Z,43.05
2017-06-03T10:33:57.815Z,43.35
2017-06-03T10:34:57.822Z,43.05
2017-06-03T10:35:57.522Z,43.25
2017-06-03T10:36:57.849Z,43.15
2017-06-03T10:37:57.544Z,43.43
2017-06-03T10:38:57.866Z,43.62
2017-06-03T10:39:57.874Z,43.52
2017-06-03T10:41:12.458Z,42.96
2017-06-03T10:42:57.904Z,43.33
2017-06-03T10:43:57.915Z,43.64
2017-06-03T10:44:57.925Z,43.33
2017-06-03T10:45:57.629Z,43.52
2017-06-03T10:46:57.947Z,43.05
2017-06-03T10:47:57.954Z,43.15
2017-06-03T10:48:57.967Z,43.05
2017-06-03T10:49:57.976Z,42.96
2017-06-03T10:50:57.990Z,43.25
2017-06-03T10:51:57.996Z,43.54
2017-06-03T10:52:58.011Z,43.33
2017-06-03T10:53:58.047Z,43.62
2017-06-03T10:54:57.768Z,43.43
2017-06-03T10:55:58.044Z,43.44
2017-06-03T10:56:57.744Z,43.15
2017-06-03T10:57:58.062Z,43.54
2017-06-03T10:58:58.071Z,42.86
2017-06-03T10:59:58.132Z,43.44
2017-06-03T11:00:58.093Z,43.52
2017-06-03T11:02:58.112Z,43.52
2017-06-03T11:03:57.811Z,43.52
2017-06-03T11:04:58.134Z,43.43
2017-06-03T11:05:58.198Z,43.43
2017-06-03T11:07:12.729Z,43.04
2017-06-03T11:09:12.750Z,43.23
2017-06-03T11:09:58.184Z,43.04
2017-06-03T11:11:12.769Z,42.94
2017-06-03T11:11:58.207Z,42.55
2017-06-03T11:12:58.215Z,42.94
2017-06-03T11:13:58.238Z,43.04
2017-06-03T11:14:58.235Z,42.74
2017-06-03T11:15:58.249Z,43.04
2017-06-03T11:16:58.257Z,42.94
2017-06-03T11:18:58.280Z,42.45
2017-06-03T11:19:58.289Z,42.65
2017-06-03T11:21:57.999Z,42.74
2017-06-03T11:22:58.370Z,42.45
2017-06-03T11:23:58.333Z,42.55
2017-06-03T11:25:12.912Z,42.55
2017-06-03T11:25:58.350Z,42.55
2017-06-03T11:26:58.362Z,42.45
2017-06-03T11:27:58.370Z,42.74
2017-06-03T11:28:58.378Z,43.23
2017-06-03T11:30:12.963Z,42.74
2017-06-03T11:30:58.400Z,42.94
2017-06-03T11:31:58.407Z,42.65
2017-06-03T11:33:58.427Z,43.04
2017-06-03T11:34:58.489Z,43.13
2017-06-03T11:36:13.022Z,42.65
2017-06-03T11:36:58.460Z,42.65
2017-06-03T11:38:13.044Z,42.16
2017-06-03T11:38:58.478Z,42.74
2017-06-03T11:40:58.502Z,42.55
2017-06-03T11:41:58.512Z,42.65
2017-06-03T11:42:58.518Z,42.35
2017-06-03T11:43:58.246Z,42.43
2017-06-03T11:44:58.540Z,42.74
2017-06-03T11:45:58.549Z,42.55
2017-06-03T11:46:58.557Z,43.13
2017-06-03T11:48:13.145Z,42.35
2017-06-03T11:48:58.268Z,42.55
2017-06-03T11:49:58.278Z,42.94
2017-06-03T11:50:58.598Z,42.55
2017-06-03T11:52:13.182Z,42.47
2017-06-03T11:52:58.618Z,42.65
2017-06-03T11:54:13.253Z,42.55
2017-06-03T11:54:58.379Z,42.84
2017-06-03T11:55:58.661Z,42.65
2017-06-03T11:56:58.662Z,42.74
2017-06-03T11:57:58.357Z,42.65
2017-06-03T11:58:58.677Z,42.55
2017-06-03T12:00:58.747Z,42.55
2017-06-03T12:01:58.746Z,42.74
2017-06-03T12:02:58.717Z,42.55
2017-06-03T12:03:58.417Z,42.55
2017-06-03T12:04:58.480Z,42.06
2017-06-03T12:05:58.441Z,42.06
2017-06-03T12:06:58.449Z,41.96
2017-06-03T12:07:58.770Z,41.86
2017-06-03T12:08:58.780Z,42.16
2017-06-03T12:09:58.841Z,42.25
2017-06-03T12:10:58.852Z,42.06
2017-06-03T12:11:58.864Z,42.35
2017-06-03T12:12:58.871Z,41.99
2017-06-03T12:13:58.882Z,42.28
2017-06-03T12:14:58.892Z,42.38
2017-06-03T12:15:58.541Z,42.08
2017-06-03T12:17:13.435Z,42.18
2017-06-03T12:17:58.873Z,41.69
2017-06-03T12:18:58.934Z,42.08
2017-06-03T12:19:58.897Z,41.79
2017-06-03T12:20:58.954Z,42.18
2017-06-03T12:21:58.916Z,42.18
2017-06-03T12:22:58.926Z,41.79
2017-06-03T12:24:13.508Z,41.89
2017-06-03T12:25:58.958Z,41.89
2017-06-03T12:26:59.018Z,41.79
2017-06-03T12:27:58.668Z,42.08
2017-06-03T12:28:58.990Z,42.76
2017-06-03T12:29:59.004Z,41.69
2017-06-03T12:30:59.009Z,42.76
2017-06-03T12:31:59.071Z,42.66
2017-06-03T12:32:59.035Z,42.38
2017-06-03T12:33:59.045Z,42.47
2017-06-03T12:34:59.051Z,42.76
2017-06-03T12:35:59.067Z,42.66
2017-06-03T12:36:59.073Z,42.66
2017-06-03T12:37:59.085Z,42.57
2017-06-03T12:38:59.095Z,42.66
2017-06-03T12:39:58.845Z,42.57
2017-06-03T12:40:58.806Z,42.57
2017-06-03T12:42:13.699Z,42.66
2017-06-03T12:42:59.137Z,42.76
2017-06-03T12:44:59.156Z,43.15
2017-06-03T12:45:59.219Z,42.47
2017-06-03T12:46:59.182Z,42.96
2017-06-03T12:47:59.189Z,42.57
2017-06-03T12:48:58.889Z,42.66
2017-06-03T12:49:58.901Z,42.57
2017-06-03T12:50:59.277Z,42.47
2017-06-03T12:51:58.921Z,42.47
2017-06-03T12:52:59.246Z,42.57
2017-06-03T12:53:59.255Z,42.57
2017-06-03T12:54:59.266Z,42.38
2017-06-03T12:55:59.274Z,42.66
2017-06-03T12:56:59.287Z,42.38
2017-06-03T12:57:59.296Z,42.76
2017-06-03T12:58:58.996Z,42.86
2017-06-03T12:59:59.317Z,42.47
2017-06-03T13:01:13.900Z,42.96
2017-06-03T13:01:59.338Z,43.33
2017-06-03T13:02:59.402Z,42.86
2017-06-03T13:03:59.361Z,43.05
2017-06-03T13:04:59.369Z,42.76
2017-06-03T13:05:59.388Z,42.76
2017-06-03T13:07:13.966Z,43.04
2017-06-03T13:07:59.451Z,42.76
2017-06-03T13:08:59.461Z,42.94
2017-06-03T13:09:59.423Z,42.94
2017-06-03T13:10:59.432Z,43.23
2017-06-03T13:11:59.497Z,42.76
2017-06-03T13:12:59.452Z,42.96